Time;durP1;ratioP1;P1;durP2;ratioP2;P2;SDS_P1;SDS_P2;PMS_P1;PMS_P2;Temp;Humidity;BMP_temperature;BMP_pressure;BME280_temperature;BME280_humidity;BME280_pressure;Samples;Min_cycle;Max_cycle;Signal;HPM_P1;HPM_P2
2021/10/02 00:02:15;;;;;;;40.68;22.91;;;;;;;;;;354005;148;856465;-63
2021/10/02 00:31:20;;;;;;;43.83;22.80;;;;;;;;;;360800;145;856247;-63
2021/10/02 00:41:49;;;;;;;50.99;22.72;;;;;;;;;;333852;158;856635;-63
2021/10/02 00:45:20;;;;;;;53.22;23.74;;;;;;;;;;359384;145;856178;-63
2021/10/02 00:46:23;;;;;;;46.62;23.61;;;;;;;;;;359760;146;856921;-63
2021/10/02 00:47:26;;;;;;;48.18;23.80;;;;;;;;;;359769;148;855980;-62
2021/10/02 00:48:28;;;;;;;45.66;24.19;;;;;;;;;;359230;145;863929;-63
2021/10/02 00:49:30;;;;;;;46.97;24.45;;;;;;;;;;359905;146;856667;-63
2021/10/02 00:50:32;;;;;;;48.82;23.64;;;;;;;;;;360411;146;856329;-63
2021/10/02 00:51:33;;;;;;;46.59;23.81;;;;;;;;;;359961;147;863839;-63
2021/10/02 00:52:35;;;;;;;52.23;24.46;;;;;;;;;;359728;145;858151;-62
2021/10/02 00:53:36;;;;;;;47.99;24.77;;;;;;;;;;360202;146;856494;-63
2021/10/02 00:54:38;;;;;;;50.04;26.22;;;;;;;;;;360123;147;857012;-63
2021/10/02 00:55:40;;;;;;;52.33;25.34;;;;;;;;;;359256;145;856902;-63
2021/10/02 00:56:42;;;;;;;55.95;25.24;;;;;;;;;;359700;146;856631;-63
2021/10/02 00:57:43;;;;;;;51.89;26.11;;;;;;;;;;359749;146;856825;-63
2021/10/02 00:58:49;;;;;;;56.37;26.01;;;;;;;;;;359628;146;856724;-63
2021/10/02 00:59:49;;;;;;;54.02;25.93;;;;;;;;;;359824;146;856790;-63
2021/10/02 01:00:52;;;;;;;56.05;26.05;;;;;;;;;;359110;145;856024;-63
2021/10/02 01:01:55;;;;;;;44.32;24.19;;;;;;;;;;359235;146;863517;-63
2021/10/02 01:05:17;;;;;;;49.28;24.32;;;;;;;4.34;65.77;101307.70;369470;142;874532;-62
2021/10/02 01:06:26;;;;;;;52.21;25.58;;;;;;;4.24;65.87;101315.03;362986;146;857172;-63
2021/10/02 01:07:48;;;;;;;50.95;23.95;;;;;;;4.28;66.03;101316.01;349763;146;857136;-62
2021/10/02 01:08:57;;;;;;;52.97;26.49;;;;;;;4.31;65.68;101308.44;362378;146;857491;-63
2021/10/02 01:10:28;;;;;;;52.64;25.09;;;;;;;4.35;65.56;101317.14;363441;146;857042;-63
2021/10/02 01:11:55;;;;;;;44.04;24.66;;;;;;;4.35;65.26;101310.31;362812;146;856088;-63
2021/10/02 01:13:18;;;;;;;47.94;23.47;;;;;;;4.29;65.00;101314.34;362705;147;856075;-63
2021/10/02 01:14:27;;;;;;;51.46;24.41;;;;;;;4.21;65.25;101312.31;363111;146;857429;-63
2021/10/02 01:15:38;;;;;;;51.16;24.52;;;;;;;4.20;65.55;101313.12;363195;146;856652;-63
2021/10/02 01:16:42;;;;;;;56.26;25.16;;;;;;;4.21;65.71;101314.87;363262;146;856254;-63
2021/10/02 01:17:52;;;;;;;46.52;24.15;;;;;;;4.22;65.99;101314.06;363940;146;856589;-63
2021/10/02 01:18:56;;;;;;;;;;;;;;;4.26;66.11;101316.78;359315;149;855947;-63
2021/10/02 01:20:05;;;;;;;52.92;23.86;;;;;;;4.24;66.07;101317.59;351520;150;856199;-63
2021/10/02 01:21:34;;;;;;;48.38;24.93;;;;;;;4.24;66.08;101315.03;363402;146;856949;-66
2021/10/02 01:22:39;;;;;;;53.49;25.66;;;;;;;4.28;65.86;101303.19;362869;146;856831;-63
2021/10/02 01:23:51;;;;;;;50.99;25.45;;;;;;;4.31;65.24;101298.18;348633;151;857086;-63
2021/10/02 01:25:14;;;;;;;53.04;25.82;;;;;;;4.32;65.00;101302.50;357389;147;856093;-62
2021/10/02 01:26:30;;;;;;;47.20;25.82;;;;;;;4.31;64.45;101302.45;362123;146;856063;-63
2021/10/02 01:27:55;;;;;;;54.07;25.82;;;;;;;4.23;64.24;101302.99;362903;146;856066;-63
2021/10/02 01:28:59;;;;;;;50.58;25.33;;;;;;;4.17;64.23;101307.02;363060;146;856406;-63
2021/10/02 01:30:06;;;;;;;48.95;24.84;;;;;;;4.09;64.60;101310.14;363129;146;856674;-62
2021/10/02 01:31:17;;;;;;;50.84;25.56;;;;;;;4.06;64.93;101311.70;362533;147;857266;-63
2021/10/02 01:32:20;;;;;;;47.39;25.23;;;;;;;4.08;65.35;101310.95;362214;146;856225;-63
2021/10/02 01:33:40;;;;;;;49.47;24.43;;;;;;;4.09;65.02;101312.71;362695;146;856206;-64
2021/10/02 01:34:48;;;;;;;51.88;25.26;;;;;;;4.09;65.01;101305.02;362967;147;856696;-63
2021/10/02 01:35:49;;;;;;;51.26;24.99;;;;;;;4.11;65.13;101302.50;362213;146;856640;-63
2021/10/02 01:37:12;;;;;;;51.20;24.81;;;;;;;4.11;65.25;101304.20;351147;150;856247;-63
2021/10/02 01:47:14;;;;;;;;;;;;;;;;;;366654;146;855762;-63
2021/10/02 01:48:16;;;;;;;43.78;22.56;;;;;;;;;;365233;146;856060;-63
2021/10/02 01:49:17;;;;;;;47.06;24.61;;;;;;;;;;364359;147;856054;-63
2021/10/02 01:50:27;;;;;;;49.80;24.72;;;;;;;;;;365322;146;863699;-63
2021/10/02 01:51:28;;;;;;;45.03;23.52;;;;;;;;;;363609;147;863714;-63
2021/10/02 01:52:31;;;;;;;46.40;23.58;;;;;;;;;;366404;146;856113;-63
2021/10/02 01:53:36;;;;;;;49.49;24.35;;;;;;;;;;362831;147;864493;-63
2021/10/02 01:54:38;;;;;;;49.04;23.86;;;;;;;;;;365061;146;856868;-63
2021/10/02 01:55:40;;;;;;;48.36;24.32;;;;;;;;;;363915;146;856270;-63
2021/10/02 01:56:43;;;;;;;50.08;24.96;;;;;;;;;;365565;146;864642;-63
2021/10/02 01:57:46;;;;;;;44.41;23.96;;;;;;;;;;358017;148;856448;-63
2021/10/02 01:58:48;;;;;;;54.05;23.61;;;;;;;;;;357003;149;864042;-63
2021/10/02 01:59:49;;;;;;;43.81;24.63;;;;;;;;;;364932;147;863665;-63
2021/10/02 02:00:51;;;;;;;49.36;24.25;;;;;;;;;;364648;146;857005;-63
2021/10/02 02:01:53;;;;;;;48.44;23.30;;;;;;;;;;363975;146;856208;-63
2021/10/02 02:02:55;;;;;;;52.86;24.71;;;;;;;;;;365630;146;856225;-63
2021/10/02 02:03:56;;;;;;;50.29;26.79;;;;;;;;;;365416;146;856182;-63
2021/10/02 02:04:58;;;;;;;43.21;24.01;;;;;;;;;;362244;146;856698;-63
2021/10/02 02:06:00;;;;;;;46.65;24.88;;;;;;;;;;358399;147;863971;-63
2021/10/02 02:07:02;;;;;;;50.63;24.25;;;;;;;;;;357235;147;863950;-63
2021/10/02 02:08:04;;;;;;;46.29;24.38;;;;;;;;;;357701;148;856475;-63
2021/10/02 02:09:07;;;;;;;56.33;25.33;;;;;;;;;;360508;147;856614;-63
2021/10/02 02:10:09;;;;;;;43.86;24.05;;;;;;;;;;360291;148;856908;-63
2021/10/02 02:11:11;;;;;;;45.99;24.16;;;;;;;;;;360791;148;864283;-64
2021/10/02 02:12:13;;;;;;;44.56;23.81;;;;;;;;;;358774;147;863821;-63
2021/10/02 02:13:14;;;;;;;44.98;23.37;;;;;;;;;;360071;146;864013;-63
2021/10/02 02:14:16;;;;;;;52.29;23.92;;;;;;;;;;358498;146;856171;-63
2021/10/02 02:15:17;;;;;;;44.02;24.01;;;;;;;;;;358980;146;856646;-63
2021/10/02 02:16:19;;;;;;;52.17;24.97;;;;;;;;;;360004;147;858752;-63
2021/10/02 02:17:21;;;;;;;49.31;22.86;;;;;;;;;;359580;147;863763;-63
2021/10/02 02:18:23;;;;;;;46.32;22.76;;;;;;;;;;359423;147;856651;-63
2021/10/02 02:19:24;;;;;;;45.78;23.48;;;;;;;;;;358966;146;863901;-63
2021/10/02 02:20:29;;;;;;;42.67;22.83;;;;;;;;;;358309;147;863803;-63
2021/10/02 02:21:31;;;;;;;43.52;22.87;;;;;;;;;;359068;147;856437;-63
2021/10/02 02:22:32;;;;;;;45.61;24.04;;;;;;;;;;358427;146;856351;-62
2021/10/02 02:23:34;;;;;;;42.19;23.05;;;;;;;;;;359044;146;864180;-63
2021/10/02 02:24:35;;;;;;;42.21;23.45;;;;;;;;;;359035;147;863965;-63
2021/10/02 02:25:37;;;;;;;48.59;23.44;;;;;;;;;;359552;146;864131;-63
2021/10/02 02:26:39;;;;;;;45.76;23.04;;;;;;;;;;358904;146;864037;-63
2021/10/02 02:27:40;;;;;;;45.07;23.09;;;;;;;;;;359226;147;856569;-63
2021/10/02 02:28:42;;;;;;;45.61;23.23;;;;;;;;;;358572;148;864036;-63
2021/10/02 02:29:44;;;;;;;42.07;23.23;;;;;;;;;;352068;150;864164;-63
2021/10/02 02:30:45;;;;;;;46.15;23.91;;;;;;;;;;351039;152;863762;-63
2021/10/02 02:31:47;;;;;;;49.94;24.49;;;;;;;;;;344032;154;856083;-63
2021/10/02 02:32:50;;;;;;;45.38;23.26;;;;;;;;;;343302;154;856081;-63
2021/10/02 02:33:52;;;;;;;45.80;22.65;;;;;;;;;;345474;152;863998;-63
2021/10/02 02:34:53;;;;;;;46.08;23.24;;;;;;;;;;340799;154;863949;-63
2021/10/02 02:35:55;;;;;;;47.31;23.80;;;;;;;;;;353371;149;863888;-63
2021/10/02 02:36:57;;;;;;;40.04;21.66;;;;;;;;;;358435;146;858694;-63
2021/10/02 02:37:59;;;;;;;44.67;22.65;;;;;;;;;;358848;146;863624;-63
2021/10/02 02:39:00;;;;;;;47.05;21.54;;;;;;;;;;357956;146;856808;-62
2021/10/02 02:40:02;;;;;;;48.22;23.11;;;;;;;;;;358078;147;856389;-63
2021/10/02 02:41:04;;;;;;;42.49;22.17;;;;;;;;;;359546;147;857019;-63
2021/10/02 02:42:06;;;;;;;45.28;22.97;;;;;;;;;;358089;148;857080;-63
2021/10/02 02:43:08;;;;;;;39.14;22.36;;;;;;;;;;361613;147;863837;-63
2021/10/02 02:44:10;;;;;;;42.75;22.60;;;;;;;;;;360872;148;856110;-63
2021/10/02 02:45:12;;;;;;;42.27;23.29;;;;;;;;;;361408;147;856239;-63
2021/10/02 02:46:17;;;;;;;43.80;22.23;;;;;;;;;;359123;148;856503;-64
2021/10/02 02:47:20;;;;;;;44.70;22.95;;;;;;;;;;360221;147;856552;-63
2021/10/02 02:48:24;;;;;;;42.39;21.61;;;;;;;;;;360336;147;856643;-63
2021/10/02 02:49:33;;;;;;;45.40;23.21;;;;;;;;;;357276;147;856564;-64
2021/10/02 02:50:38;;;;;;;42.62;23.01;;;;;;;;;;357530;148;856574;-63
2021/10/02 02:51:50;;;;;;;45.97;23.24;;;;;;;;;;361659;147;856225;-63
2021/10/02 02:52:55;;;;;;;39.47;21.91;;;;;;;;;;359002;147;856597;-62
2021/10/02 02:54:08;;;;;;;44.52;22.52;;;;;;;;;;359526;148;855988;-61
2021/10/02 02:55:10;;;;;;;43.82;22.18;;;;;;;;;;360053;148;856458;-61
2021/10/02 02:56:14;;;;;;;39.26;20.98;;;;;;;;;;360684;147;856023;-61
2021/10/02 02:57:17;;;;;;;38.00;21.33;;;;;;;;;;360338;148;856641;-61
2021/10/02 02:58:19;;;;;;;44.85;22.93;;;;;;;;;;361346;148;863601;-61
2021/10/02 02:59:22;;;;;;;44.99;22.01;;;;;;;;;;360345;147;856537;-61
2021/10/02 03:00:24;;;;;;;44.98;22.53;;;;;;;;;;358666;147;856149;-62
2021/10/02 03:01:26;;;;;;;48.69;22.06;;;;;;;;;;359187;148;856437;-62
2021/10/02 03:02:28;;;;;;;42.85;23.34;;;;;;;;;;361817;146;863919;-62
2021/10/02 03:03:30;;;;;;;37.42;21.47;;;;;;;;;;360632;147;863789;-62
2021/10/02 03:04:32;;;;;;;43.18;22.32;;;;;;;;;;361296;148;858164;-62
2021/10/02 03:05:33;;;;;;;45.48;21.35;;;;;;;;;;357238;148;856282;-63
2021/10/02 03:06:36;;;;;;;40.69;22.16;;;;;;;;;;358206;147;856205;-62
2021/10/02 03:07:38;;;;;;;45.69;21.89;;;;;;;;;;358885;147;856739;-61
2021/10/02 03:08:44;;;;;;;40.08;21.33;;;;;;;;;;356832;147;856776;-60
2021/10/02 03:09:46;;;;;;;46.98;21.48;;;;;;;;;;359997;147;856925;-61
2021/10/02 03:10:48;;;;;;;40.56;22.40;;;;;;;;;;359279;147;856890;-60
2021/10/02 03:11:49;;;;;;;48.01;22.75;;;;;;;;;;361098;147;856047;-61
2021/10/02 03:12:52;;;;;;;40.37;22.53;;;;;;;;;;359166;148;855975;-60
2021/10/02 03:13:55;;;;;;;39.02;21.75;;;;;;;;;;359870;147;856018;-62
2021/10/02 03:14:58;;;;;;;44.39;23.75;;;;;;;;;;360516;147;856589;-61
2021/10/02 03:15:59;;;;;;;48.26;22.50;;;;;;;;;;360675;148;856311;-62
2021/10/02 03:17:01;;;;;;;43.08;21.30;;;;;;;;;;352802;150;856645;-61
2021/10/02 03:18:02;;;;;;;44.14;23.06;;;;;;;;;;352703;148;858371;-60
2021/10/02 03:19:05;;;;;;;44.58;21.80;;;;;;;;;;359882;147;858784;-62
2021/10/02 03:20:07;;;;;;;42.75;23.13;;;;;;;;;;358504;147;863893;-62
2021/10/02 03:21:08;;;;;;;48.53;22.10;;;;;;;;;;358927;147;856056;-62
2021/10/02 03:22:10;;;;;;;44.06;22.38;;;;;;;;;;358846;147;864602;-62
2021/10/02 03:23:11;;;;;;;44.69;21.86;;;;;;;;;;358628;149;857869;-61
2021/10/02 03:24:13;;;;;;;46.19;23.69;;;;;;;;;;359829;148;863660;-62
2021/10/02 03:25:15;;;;;;;45.42;22.73;;;;;;;;;;359137;147;856144;-63
2021/10/02 03:26:18;;;;;;;67.59;24.40;;;;;;;;;;355415;148;856169;-62
2021/10/02 03:27:20;;;;;;;44.22;21.40;;;;;;;;;;359063;147;856240;-62
2021/10/02 03:28:22;;;;;;;46.54;24.29;;;;;;;;;;357949;147;864280;-62
2021/10/02 03:29:23;;;;;;;41.94;23.76;;;;;;;;;;358958;147;856851;-61
2021/10/02 03:30:27;;;;;;;43.98;21.98;;;;;;;;;;359573;147;856476;-62
2021/10/02 03:31:29;;;;;;;46.67;22.79;;;;;;;;;;359634;148;856042;-63
2021/10/02 03:32:30;;;;;;;45.41;22.18;;;;;;;;;;358207;147;856143;-62
2021/10/02 03:33:32;;;;;;;46.01;21.63;;;;;;;;;;357278;147;864350;-63
2021/10/02 03:34:34;;;;;;;43.07;21.37;;;;;;;;;;358345;147;856237;-62
2021/10/02 03:35:35;;;;;;;42.61;22.66;;;;;;;;;;358138;147;863897;-63
2021/10/02 03:36:37;;;;;;;53.11;24.63;;;;;;;;;;359477;147;858760;-63
2021/10/02 03:37:39;;;;;;;41.04;22.73;;;;;;;;;;359511;147;856349;-62
2021/10/02 03:38:40;;;;;;;42.13;22.50;;;;;;;;;;354211;149;856374;-63
2021/10/02 03:39:42;;;;;;;47.45;22.26;;;;;;;;;;353623;148;860488;-66
2021/10/02 03:40:44;;;;;;;43.85;21.96;;;;;;;;;;360264;147;856877;-65
2021/10/02 03:41:47;;;;;;;50.23;23.32;;;;;;;;;;359058;147;856179;-65
2021/10/02 03:42:50;;;;;;;41.41;22.59;;;;;;;;;;356842;147;857448;-65
2021/10/02 03:43:52;;;;;;;40.94;23.24;;;;;;;;;;357775;147;856522;-62
2021/10/02 03:44:53;;;;;;;40.41;21.96;;;;;;;;;;358534;147;863537;-64
2021/10/02 03:45:55;;;;;;;41.62;22.16;;;;;;;;;;359966;148;857458;-62
2021/10/02 03:46:57;;;;;;;41.99;22.91;;;;;;;;;;359517;147;856294;-61
2021/10/02 03:47:59;;;;;;;43.44;21.99;;;;;;;;;;358607;147;856115;-64
2021/10/02 03:49:00;;;;;;;50.49;21.63;;;;;;;;;;360017;147;856026;-62
2021/10/02 03:50:04;;;;;;;38.94;21.48;;;;;;;;;;358980;147;856200;-61
2021/10/02 03:51:05;;;;;;;43.70;23.46;;;;;;;;;;360911;147;863639;-62
2021/10/02 03:52:07;;;;;;;45.55;22.31;;;;;;;;;;355145;149;856216;-61
2021/10/02 03:53:09;;;;;;;43.05;21.03;;;;;;;;;;358106;147;863862;-62
2021/10/02 03:54:10;;;;;;;42.81;21.86;;;;;;;;;;357702;147;856814;-62
2021/10/02 03:55:12;;;;;;;43.93;20.94;;;;;;;;;;360850;148;863737;-60
2021/10/02 03:56:14;;;;;;;40.46;21.64;;;;;;;;;;359194;147;856000;-61
2021/10/02 03:57:16;;;;;;;41.10;21.79;;;;;;;;;;359445;148;856264;-61
2021/10/02 03:58:17;;;;;;;40.19;21.56;;;;;;;;;;359487;147;857477;-61
2021/10/02 03:59:19;;;;;;;43.96;22.46;;;;;;;;;;359086;147;864102;-63
2021/10/02 04:00:24;;;;;;;41.78;21.40;;;;;;;;;;359441;147;863918;-60
2021/10/02 04:01:25;;;;;;;48.27;21.98;;;;;;;;;;359453;147;863740;-60
2021/10/02 04:02:27;;;;;;;45.28;22.27;;;;;;;;;;359901;148;856663;-60
2021/10/02 04:03:28;;;;;;;42.82;21.49;;;;;;;;;;357666;147;864024;-60
2021/10/02 04:04:30;;;;;;;40.70;21.69;;;;;;;;;;358248;148;863695;-60
2021/10/02 04:05:32;;;;;;;44.23;22.70;;;;;;;;;;360616;147;863709;-59
2021/10/02 04:06:34;;;;;;;42.90;21.63;;;;;;;;;;360318;148;863784;-60
2021/10/02 04:07:35;;;;;;;37.94;21.69;;;;;;;;;;356451;148;856100;-59
2021/10/02 04:08:37;;;;;;;41.79;22.26;;;;;;;;;;360251;147;856983;-59
2021/10/02 04:09:38;;;;;;;42.95;21.14;;;;;;;;;;360145;148;863704;-60
2021/10/02 04:10:40;;;;;;;42.14;22.31;;;;;;;;;;359287;148;858692;-60
2021/10/02 04:11:42;;;;;;;45.19;22.06;;;;;;;;;;359188;147;863811;-59
2021/10/02 04:12:43;;;;;;;38.86;21.51;;;;;;;;;;359360;147;863949;-60
2021/10/02 04:13:45;;;;;;;40.24;21.05;;;;;;;;;;359597;147;863971;-59
2021/10/02 04:14:48;;;;;;;38.61;22.21;;;;;;;;;;358711;148;856817;-60
2021/10/02 04:15:50;;;;;;;37.33;21.64;;;;;;;;;;360541;147;856977;-60
2021/10/02 04:16:51;;;;;;;43.37;21.33;;;;;;;;;;359339;147;856159;-60
2021/10/02 04:17:53;;;;;;;40.60;21.46;;;;;;;;;;360101;147;863852;-59
2021/10/02 04:18:55;;;;;;;38.01;20.77;;;;;;;;;;359880;147;863708;-58
2021/10/02 04:19:57;;;;;;;42.79;22.58;;;;;;;;;;360001;147;857047;-57
2021/10/02 04:20:59;;;;;;;41.53;21.39;;;;;;;;;;359656;148;856629;-60
2021/10/02 04:22:00;;;;;;;40.66;21.59;;;;;;;;;;359454;148;856006;-59
2021/10/02 04:23:02;;;;;;;39.69;21.65;;;;;;;;;;359600;147;856830;-59
2021/10/02 04:24:04;;;;;;;50.33;23.44;;;;;;;;;;361863;148;856605;-59
2021/10/02 04:25:06;;;;;;;41.21;22.61;;;;;;;;;;360352;148;864423;-60
2021/10/02 04:26:08;;;;;;;47.29;21.51;;;;;;;;;;359084;147;857068;-57
2021/10/02 04:27:10;;;;;;;41.24;21.45;;;;;;;;;;359187;147;863867;-60
2021/10/02 04:28:11;;;;;;;41.87;21.51;;;;;;;;;;360218;148;858874;-59
2021/10/02 04:29:13;;;;;;;43.26;22.16;;;;;;;;;;359809;147;863665;-59
2021/10/02 04:30:15;;;;;;;44.49;21.11;;;;;;;;;;358752;147;863821;-58
2021/10/02 04:31:17;;;;;;;43.18;21.44;;;;;;;;;;358517;147;856916;-59
2021/10/02 04:32:18;;;;;;;40.55;20.81;;;;;;;;;;358856;148;863905;-59
2021/10/02 04:33:21;;;;;;;40.09;21.56;;;;;;;;;;359676;147;864296;-58
2021/10/02 04:34:25;;;;;;;36.81;21.11;;;;;;;;;;360047;147;858777;-59
2021/10/02 04:35:27;;;;;;;42.81;20.91;;;;;;;;;;352679;150;856670;-59
2021/10/02 04:36:30;;;;;;;41.66;22.01;;;;;;;;;;352301;149;864113;-59
2021/10/02 04:37:31;;;;;;;39.61;20.41;;;;;;;;;;354013;150;856224;-59
2021/10/02 04:38:33;;;;;;;41.26;21.49;;;;;;;;;;352616;149;860741;-58
2021/10/02 04:39:35;;;;;;;40.52;21.13;;;;;;;;;;350595;151;863687;-61
2021/10/02 04:40:37;;;;;;;42.05;20.85;;;;;;;;;;352992;150;864406;-60
2021/10/02 04:41:38;;;;;;;40.16;20.69;;;;;;;;;;352149;150;857422;-60
2021/10/02 04:42:40;;;;;;;37.16;20.99;;;;;;;;;;351968;150;856277;-58
2021/10/02 04:43:43;;;;;;;39.61;20.04;;;;;;;;;;344755;154;857226;-59
2021/10/02 04:44:44;;;;;;;39.86;21.12;;;;;;;;;;353695;149;863902;-59
2021/10/02 04:45:46;;;;;;;40.01;20.24;;;;;;;;;;359539;147;856186;-59
2021/10/02 04:46:49;;;;;;;41.39;20.75;;;;;;;;;;357377;148;856282;-60
2021/10/02 04:47:51;;;;;;;38.95;21.07;;;;;;;;;;358789;147;856538;-58
2021/10/02 04:48:53;;;;;;;40.07;19.98;;;;;;;;;;360468;147;863720;-58
2021/10/02 04:49:54;;;;;;;40.84;21.93;;;;;;;;;;359982;147;858596;-58
2021/10/02 04:50:56;;;;;;;36.86;19.22;;;;;;;;;;360390;148;856592;-59
2021/10/02 04:51:57;;;;;;;37.87;20.66;;;;;;;;;;358490;147;863616;-60
2021/10/02 04:52:59;;;;;;;37.67;20.74;;;;;;;;;;358673;147;856312;-59
2021/10/02 04:54:01;;;;;;;43.66;21.54;;;;;;;;;;361227;148;856345;-60
2021/10/02 04:55:02;;;;;;;36.54;19.79;;;;;;;;;;359395;148;864418;-61
2021/10/02 04:56:09;;;;;;;37.63;20.29;;;;;;;;;;358859;147;863719;-59
2021/10/02 04:57:10;;;;;;;37.40;20.38;;;;;;;;;;357848;147;856229;-61
2021/10/02 04:58:12;;;;;;;42.04;21.25;;;;;;;;;;359910;148;856631;-60
2021/10/02 04:59:13;;;;;;;44.42;20.34;;;;;;;;;;360579;147;863600;-60
2021/10/02 05:00:17;;;;;;;36.95;20.14;;;;;;;;;;359228;147;863555;-60
2021/10/02 05:01:18;;;;;;;36.42;19.76;;;;;;;;;;358679;148;856013;-61
2021/10/02 05:02:20;;;;;;;36.64;19.27;;;;;;;;;;358229;148;859476;-59
2021/10/02 05:03:21;;;;;;;39.61;20.64;;;;;;;;;;359748;147;864180;-60
2021/10/02 05:04:23;;;;;;;43.94;21.21;;;;;;;;;;359932;147;863700;-60
2021/10/02 05:05:24;;;;;;;36.87;21.31;;;;;;;;;;359255;147;859171;-60
2021/10/02 05:06:28;;;;;;;39.75;20.87;;;;;;;;;;360933;146;863707;-60
2021/10/02 05:07:29;;;;;;;35.55;19.99;;;;;;;;;;365341;146;864339;-60
2021/10/02 05:08:31;;;;;;;38.27;20.87;;;;;;;;;;362721;146;855924;-60
2021/10/02 05:09:32;;;;;;;37.51;21.51;;;;;;;;;;364956;146;857152;-60
2021/10/02 05:10:35;;;;;;;33.89;20.26;;;;;;;;;;363938;146;857026;-61
2021/10/02 05:11:37;;;;;;;45.25;21.78;;;;;;;;;;362642;145;857281;-60
2021/10/02 05:12:38;;;;;;;41.65;21.97;;;;;;;;;;365625;147;856716;-60
2021/10/02 05:13:40;;;;;;;39.22;20.06;;;;;;;;;;365044;147;856476;-60
2021/10/02 05:14:41;;;;;;;40.19;20.17;;;;;;;;;;363808;146;857592;-60
2021/10/02 05:15:43;;;;;;;41.19;20.77;;;;;;;;;;364089;147;857888;-60
2021/10/02 05:16:45;;;;;;;36.37;20.15;;;;;;;;;;365389;146;857251;-60
2021/10/02 05:17:47;;;;;;;40.71;19.31;;;;;;;;;;365030;146;857146;-60
2021/10/02 05:18:48;;;;;;;35.33;20.53;;;;;;;;;;363287;146;863684;-61
2021/10/02 05:19:51;;;;;;;34.36;19.89;;;;;;;;;;360074;147;864016;-60
2021/10/02 05:20:53;;;;;;;42.13;20.85;;;;;;;;;;364096;146;863408;-60
2021/10/02 05:21:55;;;;;;;36.35;21.48;;;;;;;;;;365204;146;856150;-60
2021/10/02 05:22:57;;;;;;;38.84;20.09;;;;;;;;;;365709;146;863559;-61
2021/10/02 05:23:58;;;;;;;41.16;20.99;;;;;;;;;;363399;146;863567;-60
2021/10/02 05:25:00;;;;;;;38.04;21.63;;;;;;;;;;364297;146;863702;-60
2021/10/02 05:26:01;;;;;;;38.24;21.94;;;;;;;;;;361198;146;863707;-63
2021/10/02 05:27:06;;;;;;;37.98;21.49;;;;;;;;;;360633;146;863582;-62
2021/10/02 05:28:07;;;;;;;36.09;19.69;;;;;;;;;;363211;147;864303;-61
2021/10/02 05:29:09;;;;;;;41.83;20.67;;;;;;;;;;363652;146;856070;-61
2021/10/02 05:30:11;;;;;;;42.66;20.81;;;;;;;;;;363014;146;856641;-62
2021/10/02 05:31:12;;;;;;;34.32;20.11;;;;;;;;;;363031;146;863716;-61
2021/10/02 05:32:15;;;;;;;40.09;21.11;;;;;;;;;;358216;147;856855;-61
2021/10/02 05:33:17;;;;;;;38.86;21.04;;;;;;;;;;357778;146;857179;-61
2021/10/02 05:34:18;;;;;;;37.29;20.52;;;;;;;;;;362496;147;856182;-61
2021/10/02 05:35:20;;;;;;;33.62;21.14;;;;;;;;;;364534;146;863614;-61
2021/10/02 05:36:22;;;;;;;38.91;20.75;;;;;;;;;;364712;146;856899;-61
2021/10/02 05:37:23;;;;;;;35.61;20.43;;;;;;;;;;365053;146;856777;-61
2021/10/02 05:38:25;;;;;;;39.91;20.27;;;;;;;;;;364116;146;863614;-61
2021/10/02 05:39:27;;;;;;;34.09;19.92;;;;;;;;;;364158;146;856131;-61
2021/10/02 05:40:29;;;;;;;33.75;20.37;;;;;;;;;;363774;146;856673;-61
2021/10/02 05:41:31;;;;;;;33.14;19.84;;;;;;;;;;363390;146;856158;-61
2021/10/02 05:42:33;;;;;;;31.39;18.59;;;;;;;;;;363978;147;857001;-61
2021/10/02 05:43:34;;;;;;;36.18;19.85;;;;;;;;;;364815;146;863691;-60
2021/10/02 05:44:36;;;;;;;35.33;18.96;;;;;;;;;;362416;146;863628;-60
2021/10/02 05:45:37;;;;;;;36.14;19.74;;;;;;;;;;362151;146;863821;-59
2021/10/02 05:46:40;;;;;;;38.84;19.69;;;;;;;;;;364398;146;863845;-60
2021/10/02 05:47:42;;;;;;;36.91;19.85;;;;;;;;;;362537;146;864064;-62
2021/10/02 05:48:43;;;;;;;34.54;19.34;;;;;;;;;;360722;147;856584;-60
2021/10/02 05:49:45;;;;;;;41.61;20.46;;;;;;;;;;365204;146;864074;-59
2021/10/02 05:50:47;;;;;;;41.93;19.87;;;;;;;;;;357919;149;863905;-60
2021/10/02 05:51:49;;;;;;;43.27;21.79;;;;;;;;;;349685;151;856498;-60
2021/10/02 05:52:51;;;;;;;32.45;18.99;;;;;;;;;;363903;146;856162;-60
2021/10/02 05:53:52;;;;;;;37.87;20.16;;;;;;;;;;364133;146;863856;-60
2021/10/02 05:54:54;;;;;;;39.17;19.25;;;;;;;;;;365858;146;863913;-61
2021/10/02 05:55:55;;;;;;;34.84;19.76;;;;;;;;;;364778;147;858503;-59
2021/10/02 05:56:57;;;;;;;35.66;19.26;;;;;;;;;;363972;146;856089;-60
2021/10/02 05:57:58;;;;;;;35.13;19.21;;;;;;;;;;364448;146;858565;-60
2021/10/02 05:59:00;;;;;;;34.76;19.24;;;;;;;;;;365028;146;856800;-61
2021/10/02 06:00:03;;;;;;;32.91;18.52;;;;;;;;;;363722;146;856251;-60
2021/10/02 06:01:05;;;;;;;39.72;18.90;;;;;;;;;;365021;146;865062;-62
2021/10/02 06:02:07;;;;;;;36.93;19.42;;;;;;;;;;364180;146;856622;-60
2021/10/02 06:03:08;;;;;;;33.04;19.64;;;;;;;;;;364213;146;864259;-60
2021/10/02 06:04:10;;;;;;;34.24;19.96;;;;;;;;;;364337;147;864256;-60
2021/10/02 06:05:12;;;;;;;38.10;18.87;;;;;;;;;;364094;146;863905;-62
2021/10/02 06:06:15;;;;;;;32.36;18.53;;;;;;;;;;364252;147;863512;-62
2021/10/02 06:07:17;;;;;;;37.20;19.20;;;;;;;;;;362720;147;856511;-60
2021/10/02 06:08:18;;;;;;;37.68;19.21;;;;;;;;;;361402;146;863843;-59
2021/10/02 06:09:20;;;;;;;33.38;18.54;;;;;;;;;;360684;149;863720;-58
2021/10/02 06:10:23;;;;;;;34.87;19.47;;;;;;;;;;360372;147;863841;-59
2021/10/02 06:11:24;;;;;;;34.59;18.82;;;;;;;;;;357237;147;856907;-61
2021/10/02 06:12:26;;;;;;;39.35;18.79;;;;;;;;;;361766;146;856201;-61
2021/10/02 06:13:27;;;;;;;32.57;18.52;;;;;;;;;;360672;147;863527;-60
2021/10/02 06:14:29;;;;;;;34.21;18.77;;;;;;;;;;357034;149;864377;-61
2021/10/02 06:15:31;;;;;;;35.66;18.64;;;;;;;;;;360279;147;863901;-60
2021/10/02 06:16:32;;;;;;;33.41;17.57;;;;;;;;;;358871;146;856491;-60
2021/10/02 06:17:34;;;;;;;32.11;18.64;;;;;;;;;;361477;147;856567;-60
2021/10/02 06:18:36;;;;;;;34.45;18.58;;;;;;;;;;360323;147;863848;-61
2021/10/02 06:19:37;;;;;;;29.96;16.30;;;;;;;;;;360321;147;864045;-60
2021/10/02 06:20:39;;;;;;;28.65;16.91;;;;;;;;;;358720;147;864086;-60
2021/10/02 06:21:41;;;;;;;29.61;17.77;;;;;;;;;;359076;147;856232;-60
2021/10/02 06:22:42;;;;;;;35.99;17.03;;;;;;;;;;359463;147;859802;-60
2021/10/02 06:23:44;;;;;;;30.81;17.50;;;;;;;;;;359458;147;856213;-60
2021/10/02 06:24:46;;;;;;;31.07;16.88;;;;;;;;;;358480;147;864522;-60
2021/10/02 06:25:48;;;;;;;32.08;17.90;;;;;;;;;;361747;147;863709;-59
2021/10/02 06:26:50;;;;;;;30.46;16.54;;;;;;;;;;359782;147;856976;-61
2021/10/02 06:27:52;;;;;;;28.01;15.05;;;;;;;;;;360905;147;856023;-61
2021/10/02 06:28:53;;;;;;;29.36;15.77;;;;;;;;;;359184;146;857373;-61
2021/10/02 06:29:55;;;;;;;38.59;17.06;;;;;;;;;;361346;146;863752;-60
2021/10/02 06:30:58;;;;;;;26.24;14.92;;;;;;;;;;359473;147;856101;-60
2021/10/02 06:31:59;;;;;;;29.24;14.47;;;;;;;;;;361314;146;856273;-60
2021/10/02 06:33:01;;;;;;;28.69;15.77;;;;;;;;;;356954;148;856636;-60
2021/10/02 06:34:02;;;;;;;28.27;14.86;;;;;;;;;;360284;146;864161;-60
2021/10/02 06:35:04;;;;;;;33.09;15.75;;;;;;;;;;360731;147;863717;-61
2021/10/02 06:36:07;;;;;;;28.18;13.92;;;;;;;;;;358731;149;855996;-59
2021/10/02 06:37:08;;;;;;;27.31;13.62;;;;;;;;;;360353;147;856636;-59
2021/10/02 06:38:10;;;;;;;22.46;13.20;;;;;;;;;;359844;147;863627;-61
2021/10/02 06:39:12;;;;;;;23.61;13.78;;;;;;;;;;360393;147;856263;-61
2021/10/02 06:40:14;;;;;;;25.87;13.60;;;;;;;;;;357613;148;856374;-61
2021/10/02 06:41:16;;;;;;;30.66;12.96;;;;;;;;;;360544;147;856167;-62
2021/10/02 06:42:17;;;;;;;23.24;12.74;;;;;;;;;;360137;147;863895;-61
2021/10/02 06:43:19;;;;;;;26.42;12.74;;;;;;;;;;359381;146;856807;-60
2021/10/02 06:44:20;;;;;;;19.04;11.09;;;;;;;;;;359692;147;856941;-59
2021/10/02 06:45:22;;;;;;;26.06;11.75;;;;;;;;;;360150;147;856051;-61
2021/10/02 06:46:25;;;;;;;22.84;10.97;;;;;;;;;;360286;147;856025;-61
2021/10/02 06:47:27;;;;;;;23.27;12.17;;;;;;;;;;359497;148;856047;-61